Time;durP1;ratioP1;P1;durP2;ratioP2;P2;SDS_P1;SDS_P2;PMS_P1;PMS_P2;Temp;Humidity;BMP_temperature;BMP_pressure;BME280_temperature;BME280_humidity;BME280_pressure;Samples;Min_cycle;Max_cycle;Signal;HPM_P1;HPM_P2
2023/12/07 00:02:09;;;;;;;21.75;13.75;;;2.70;99.90;;;;;;5094215;28;20162;-63
2023/12/07 00:04:35;;;;;;;21.50;13.57;;;2.70;99.90;;;;;;5076181;28;20032;-63
2023/12/07 00:07:00;;;;;;;20.45;12.90;;;2.70;99.90;;;;;;5094713;28;20028;-63
2023/12/07 00:09:26;;;;;;;21.17;13.73;;;2.70;99.90;;;;;;5094428;28;20064;-63
2023/12/07 00:11:52;;;;;;;21.42;12.18;;;2.70;99.90;;;;;;5076259;28;20024;-63
2023/12/07 00:14:17;;;;;;;20.75;13.75;;;2.70;99.90;;;;;;5093975;28;20465;-63
2023/12/07 00:16:43;;;;;;;24.50;12.85;;;2.70;99.90;;;;;;5094652;28;20077;-63
2023/12/07 00:19:08;;;;;;;17.13;11.80;;;2.70;99.90;;;;;;5094349;28;20032;-63
2023/12/07 00:21:34;;;;;;;20.77;13.38;;;2.70;99.90;;;;;;5076520;28;20024;-63
2023/12/07 00:24:01;;;;;;;21.40;12.85;;;2.70;99.90;;;;;;5094354;28;20055;-63
2023/12/07 00:26:26;;;;;;;22.83;13.68;;;2.70;99.90;;;;;;5076114;28;20431;-63
2023/12/07 00:28:52;;;;;;;20.00;12.68;;;2.70;99.90;;;;;;5094054;28;20028;-63
2023/12/07 00:31:17;;;;;;;20.35;12.85;;;2.70;99.90;;;;;;5075929;28;20036;-63
2023/12/07 00:33:45;;;;;;;19.27;12.07;;;2.60;99.90;;;;;;5072088;28;20048;-63
2023/12/07 00:36:12;;;;;;;19.58;12.35;;;2.70;99.90;;;;;;5073057;28;20393;-63
2023/12/07 00:38:38;;;;;;;20.13;12.25;;;2.70;99.90;;;;;;5075044;28;20024;-67
2023/12/07 00:41:04;;;;;;;19.02;12.05;;;2.70;99.90;;;;;;5075702;28;20034;-64
2023/12/07 00:43:29;;;;;;;19.92;12.27;;;2.60;99.90;;;;;;5075945;28;20532;-63
2023/12/07 00:45:55;;;;;;;20.70;13.05;;;2.60;99.90;;;;;;5074487;28;20033;-62
2023/12/07 00:48:21;;;;;;;20.17;12.68;;;2.60;99.90;;;;;;5073142;28;20095;-63
2023/12/07 00:50:47;;;;;;;19.88;13.50;;;2.60;99.90;;;;;;5072363;28;20082;-63
2023/12/07 00:53:13;;;;;;;20.50;13.00;;;2.60;99.90;;;;;;5073639;28;20056;-63
2023/12/07 00:55:40;;;;;;;19.83;12.65;;;2.50;99.90;;;;;;5072673;28;20056;-63
2023/12/07 00:58:05;;;;;;;19.98;11.98;;;2.50;99.90;;;;;;5073330;28;20027;-63
2023/12/07 01:00:31;;;;;;;23.00;13.00;;;2.50;99.90;;;;;;5073583;28;20400;-63
2023/12/07 01:02:57;;;;;;;22.00;13.85;;;2.50;99.90;;;;;;5072643;28;20442;-63
2023/12/07 01:05:22;;;;;;;19.45;12.45;;;2.40;99.90;;;;;;5073630;28;20116;-63
2023/12/07 01:07:48;;;;;;;19.73;12.90;;;2.40;99.90;;;;;;5073484;28;20488;-63
2023/12/07 01:10:14;;;;;;;20.33;12.75;;;2.40;99.90;;;;;;5072207;28;20369;-63
2023/12/07 01:12:39;;;;;;;19.63;12.60;;;2.40;99.90;;;;;;5073412;28;20025;-63
2023/12/07 01:15:06;;;;;;;22.05;12.55;;;2.40;99.90;;;;;;5073620;28;20492;-63
2023/12/07 01:17:31;;;;;;;18.15;12.20;;;2.40;99.90;;;;;;5073398;28;20025;-63
2023/12/07 01:19:57;;;;;;;18.42;11.98;;;2.40;99.90;;;;;;5073414;28;20033;-63
2023/12/07 01:22:23;;;;;;;20.55;12.50;;;2.40;99.90;;;;;;5073350;28;20458;-63
2023/12/07 01:24:48;;;;;;;18.67;12.43;;;2.40;99.90;;;;;;5071947;28;20464;-63
2023/12/07 01:27:14;;;;;;;20.50;12.30;;;2.40;99.90;;;;;;5071963;28;20029;-63
2023/12/07 01:29:40;;;;;;;21.50;13.13;;;2.40;99.90;;;;;;5072994;28;20021;-63
2023/12/07 01:32:06;;;;;;;19.25;12.07;;;2.40;99.90;;;;;;5078973;28;20044;-63
2023/12/07 01:34:32;;;;;;;21.38;12.98;;;2.40;99.90;;;;;;5093291;28;20115;-63
2023/12/07 01:36:58;;;;;;;18.80;10.88;;;2.40;99.90;;;;;;5075024;28;20028;-63
2023/12/07 01:39:23;;;;;;;19.67;12.77;;;2.40;99.90;;;;;;5093350;28;20028;-63
2023/12/07 01:41:51;;;;;;;20.08;12.60;;;2.50;99.90;;;;;;5093458;28;20020;-63
2023/12/07 01:44:17;;;;;;;19.27;12.27;;;2.40;99.90;;;;;;5074873;28;20046;-63
2023/12/07 01:46:42;;;;;;;21.02;11.57;;;2.40;99.90;;;;;;5075275;28;20028;-63
2023/12/07 01:49:09;;;;;;;22.52;12.35;;;2.40;99.90;;;;;;5093578;28;20418;-63
2023/12/07 01:51:35;;;;;;;20.40;12.95;;;2.40;99.90;;;;;;5093036;28;20021;-63
2023/12/07 01:54:01;;;;;;;19.67;11.93;;;2.40;99.90;;;;;;5075256;28;20024;-63
2023/12/07 01:56:27;;;;;;;20.23;12.27;;;2.40;99.90;;;;;;5093141;28;20095;-64
2023/12/07 01:58:53;;;;;;;20.55;12.77;;;2.40;99.90;;;;;;5093463;28;20525;-64
2023/12/07 02:01:19;;;;;;;21.20;12.88;;;2.50;99.90;;;;;;5096899;28;20063;-64
2023/12/07 02:03:44;;;;;;;20.60;12.30;;;2.50;99.90;;;;;;5078238;28;20032;-63
2023/12/07 02:06:10;;;;;;;20.27;13.27;;;2.50;99.90;;;;;;5097081;28;20036;-64
2023/12/07 02:08:40;;;;;;;19.33;12.50;;;2.50;99.90;;;;;;5096816;28;20092;-64
2023/12/07 02:11:08;;;;;;;21.23;12.75;;;2.50;99.90;;;;;;5097118;28;20453;-64
2023/12/07 02:13:35;;;;;;;18.88;11.90;;;2.50;99.90;;;;;;5078525;28;20032;-63
2023/12/07 02:16:02;;;;;;;18.58;12.68;;;2.50;99.90;;;;;;5078614;28;20381;-64
2023/12/07 02:18:43;;;;;;;19.85;12.30;;;2.50;99.90;;;;;;5096478;28;20508;-64
2023/12/07 02:21:42;;;;;;;22.92;13.40;;;2.50;99.90;;;;;;5078422;28;20027;-63
2023/12/07 02:24:11;;;;;;;21.65;12.48;;;2.40;99.90;;;;;;5096778;28;20032;-64
2023/12/07 02:26:38;;;;;;;21.42;12.55;;;2.40;99.90;;;;;;5096623;28;20079;-64
2023/12/07 02:29:03;;;;;;;19.38;12.57;;;2.40;99.90;;;;;;5096006;28;20115;-64
2023/12/07 02:31:29;;;;;;;21.67;13.80;;;2.40;99.90;;;;;;5096204;28;20538;-64
2023/12/07 02:33:55;;;;;;;22.50;13.45;;;2.40;99.90;;;;;;5096454;28;20059;-64
2023/12/07 02:36:24;;;;;;;20.15;13.43;;;2.40;99.90;;;;;;5096434;28;20449;-64
2023/12/07 02:38:51;;;;;;;20.42;13.15;;;2.30;99.90;;;;;;5096126;28;20058;-64
2023/12/07 02:41:19;;;;;;;23.10;13.40;;;2.40;99.90;;;;;;5078023;28;20430;-64
2023/12/07 02:43:45;;;;;;;22.52;13.15;;;2.40;99.90;;;;;;5095621;28;20090;-64
2023/12/07 02:46:10;;;;;;;20.13;12.75;;;2.40;99.90;;;;;;5096372;28;20452;-64
2023/12/07 02:48:36;;;;;;;21.02;12.80;;;2.40;99.90;;;;;;5096119;28;20032;-64
2023/12/07 02:51:02;;;;;;;21.55;13.52;;;2.30;99.90;;;;;;5096152;28;20032;-64
2023/12/07 02:53:28;;;;;;;22.88;13.98;;;2.30;99.90;;;;;;5095821;28;20036;-64
2023/12/07 02:55:53;;;;;;;24.58;14.02;;;2.30;99.90;;;;;;5095759;28;20020;-64
2023/12/07 02:58:19;;;;;;;23.30;14.15;;;;;;;;;;5077617;28;20036;-63
2023/12/07 03:00:45;;;;;;;23.17;13.95;;;2.30;99.90;;;;;;5095606;28;20089;-64
2023/12/07 03:03:10;;;;;;;24.02;14.00;;;2.40;99.90;;;;;;5095901;28;20051;-63
2023/12/07 03:05:36;;;;;;;23.17;13.05;;;2.30;99.90;;;;;;5095527;28;20039;-63
2023/12/07 03:08:01;;;;;;;23.13;14.00;;;2.40;99.90;;;;;;5095807;28;20028;-63
2023/12/07 03:10:27;;;;;;;24.08;14.60;;;2.40;99.90;;;;;;5076943;28;20381;-63
2023/12/07 03:12:53;;;;;;;23.40;14.10;;;2.30;99.90;;;;;;5095619;28;20047;-63
2023/12/07 03:15:18;;;;;;;21.67;14.05;;;2.40;99.90;;;;;;5095546;28;20389;-63
2023/12/07 03:17:44;;;;;;;22.65;13.93;;;2.30;99.90;;;;;;5077314;28;20123;-63
2023/12/07 03:20:10;;;;;;;21.33;14.02;;;2.30;99.90;;;;;;5077339;28;20442;-63
2023/12/07 03:22:36;;;;;;;23.92;14.27;;;2.30;99.90;;;;;;5077088;28;20431;-63
2023/12/07 03:25:01;;;;;;;23.10;14.13;;;2.30;99.90;;;;;;5095123;28;20028;-64
2023/12/07 03:27:28;;;;;;;23.50;13.82;;;2.30;99.90;;;;;;5095358;28;20027;-64
2023/12/07 03:29:54;;;;;;;21.98;13.20;;;2.30;99.90;;;;;;5076971;28;20094;-65
2023/12/07 03:32:20;;;;;;;23.60;13.65;;;2.30;99.90;;;;;;5094852;28;20420;-64
2023/12/07 03:34:45;;;;;;;24.65;13.80;;;2.30;99.90;;;;;;5076954;28;20388;-64
2023/12/07 03:37:11;;;;;;;21.35;13.13;;;2.40;99.90;;;;;;5078309;28;20074;-66
2023/12/07 03:39:37;;;;;;;23.67;13.75;;;2.40;99.90;;;;;;5097823;28;20024;-68
2023/12/07 03:42:02;;;;;;;22.75;12.95;;;2.40;99.90;;;;;;5097171;28;20073;-65
2023/12/07 03:44:28;;;;;;;21.88;13.32;;;2.40;99.90;;;;;;5095842;28;20460;-64
2023/12/07 03:46:55;;;;;;;24.55;14.15;;;2.40;99.90;;;;;;5094801;28;20107;-64
2023/12/07 03:49:20;;;;;;;22.27;14.15;;;2.40;99.90;;;;;;5076569;28;20031;-64
2023/12/07 03:51:46;;;;;;;24.13;13.68;;;2.40;99.90;;;;;;5094750;28;20028;-64
2023/12/07 03:54:12;;;;;;;19.95;12.93;;;2.50;99.90;;;;;;5094384;28;20482;-64
2023/12/07 03:56:37;;;;;;;21.50;13.68;;;2.50;99.90;;;;;;5076879;28;20031;-64
2023/12/07 03:59:03;;;;;;;23.50;13.68;;;2.50;99.90;;;;;;5094790;28;20031;-64
2023/12/07 04:01:29;;;;;;;23.65;12.93;;;2.50;99.90;;;;;;5076497;28;20133;-63
2023/12/07 04:03:56;;;;;;;28.30;13.45;;;2.40;99.90;;;;;;5094445;28;20034;-63
2023/12/07 04:06:23;;;;;;;23.48;13.35;;;2.40;99.90;;;;;;5075986;28;20036;-63
2023/12/07 04:08:48;;;;;;;25.38;13.70;;;2.40;99.90;;;;;;5094224;28;20024;-63
2023/12/07 04:11:14;;;;;;;23.50;13.95;;;2.40;99.90;;;;;;5075980;28;20030;-63
2023/12/07 04:13:41;;;;;;;19.75;12.68;;;2.40;99.90;;;;;;5094324;28;20028;-63
2023/12/07 04:16:07;;;;;;;20.75;12.75;;;2.40;99.90;;;;;;5094006;28;20466;-63
2023/12/07 04:18:33;;;;;;;23.50;13.07;;;2.40;99.90;;;;;;5094292;28;20025;-63
2023/12/07 04:20:59;;;;;;;25.52;13.95;;;2.40;99.90;;;;;;5076064;28;20035;-63
2023/12/07 04:23:25;;;;;;;22.45;13.55;;;2.40;99.90;;;;;;5075591;28;20059;-63
2023/12/07 04:25:50;;;;;;;22.60;13.10;;;2.40;99.90;;;;;;5093975;28;20073;-63
2023/12/07 04:28:16;;;;;;;22.35;12.75;;;2.40;99.90;;;;;;5094670;28;20024;-63
2023/12/07 04:30:42;;;;;;;19.60;12.40;;;2.50;99.90;;;;;;5076124;28;20359;-62
2023/12/07 04:33:07;;;;;;;20.48;12.68;;;2.50;99.90;;;;;;5094465;28;20067;-63
2023/12/07 04:35:34;;;;;;;21.00;12.88;;;2.50;99.90;;;;;;5094051;28;20077;-63
2023/12/07 04:37:59;;;;;;;22.33;11.75;;;2.60;99.90;;;;;;5093987;28;20073;-63
2023/12/07 04:40:25;;;;;;;22.88;12.73;;;2.50;99.90;;;;;;5093955;28;20024;-62
2023/12/07 04:42:51;;;;;;;22.08;13.18;;;2.60;99.90;;;;;;5075791;28;20123;-63
2023/12/07 04:45:17;;;;;;;20.42;13.15;;;2.60;99.90;;;;;;5075722;28;20115;-62
2023/12/07 04:47:43;;;;;;;23.80;12.75;;;2.50;99.90;;;;;;5093854;28;20028;-62
2023/12/07 04:50:09;;;;;;;24.10;14.00;;;2.60;99.90;;;;;;5075726;28;20028;-63
2023/12/07 04:52:35;;;;;;;24.10;13.13;;;2.60;99.90;;;;;;5093859;28;20024;-63
2023/12/07 04:55:01;;;;;;;22.52;14.30;;;2.60;99.90;;;;;;5094081;28;20070;-62
2023/12/07 04:57:27;;;;;;;25.77;14.50;;;2.50;99.90;;;;;;5094048;28;20056;-63
2023/12/07 04:59:53;;;;;;;26.17;13.00;;;1.30;99.90;;;;;;5059024;28;20080;-63
2023/12/07 05:02:19;;;;;;;22.92;14.25;;;2.50;99.90;;;;;;5093933;28;20047;-62
2023/12/07 05:04:45;;;;;;;24.38;14.63;;;2.50;99.90;;;;;;5093626;28;20032;-63
2023/12/07 05:07:11;;;;;;;24.73;14.50;;;2.50;99.90;;;;;;5093701;28;20465;-63
2023/12/07 05:09:38;;;;;;;24.73;14.95;;;2.50;99.90;;;;;;5093896;28;20101;-63
2023/12/07 05:12:04;;;;;;;24.42;14.98;;;2.50;99.90;;;;;;5075957;28;20405;-62
2023/12/07 05:14:31;;;;;;;25.50;13.93;;;2.50;99.90;;;;;;5093764;28;20024;-62
2023/12/07 05:16:57;;;;;;;22.90;13.20;;;2.50;99.90;;;;;;5093734;28;20025;-62
2023/12/07 05:19:23;;;;;;;24.45;14.55;;;2.50;99.90;;;;;;5093601;28;20126;-62
2023/12/07 05:21:49;;;;;;;26.08;15.02;;;2.40;99.90;;;;;;5093629;28;20024;-62
2023/12/07 05:24:15;;;;;;;25.40;15.30;;;2.40;99.90;;;;;;5093575;28;20527;-62
2023/12/07 05:26:42;;;;;;;23.75;14.85;;;2.40;99.90;;;;;;5093953;28;20067;-62
2023/12/07 05:29:08;;;;;;;25.65;14.90;;;2.50;99.90;;;;;;5093550;28;20038;-63
2023/12/07 05:31:34;;;;;;;23.63;14.13;;;2.50;99.90;;;;;;5093326;28;20024;-64
2023/12/07 05:33:59;;;;;;;25.40;14.55;;;2.50;99.90;;;;;;5095819;28;20028;-62
2023/12/07 05:36:26;;;;;;;25.30;14.38;;;2.40;99.90;;;;;;5097484;28;20024;-62
2023/12/07 05:38:51;;;;;;;24.27;14.75;;;2.40;99.90;;;;;;5079260;28;20024;-63
2023/12/07 05:41:17;;;;;;;22.70;13.50;;;2.40;99.90;;;;;;5097447;28;20209;-63
2023/12/07 05:43:43;;;;;;;27.50;15.02;;;2.40;99.90;;;;;;5097322;28;20028;-62
2023/12/07 05:46:09;;;;;;;26.52;14.55;;;2.40;99.90;;;;;;5097337;28;20028;-63
2023/12/07 05:48:34;;;;;;;21.88;13.40;;;2.40;99.90;;;;;;5097545;28;20411;-62
2023/12/07 05:51:01;;;;;;;26.25;14.93;;;2.40;99.90;;;;;;5078991;28;20378;-62
2023/12/07 05:53:27;;;;;;;25.30;14.13;;;2.40;99.90;;;;;;5097309;28;20028;-62
2023/12/07 05:55:54;;;;;;;25.58;15.00;;;2.40;99.90;;;;;;5097045;28;20022;-62
2023/12/07 05:58:20;;;;;;;25.50;14.48;;;2.50;99.90;;;;;;5096666;28;20030;-62
2023/12/07 06:00:46;;;;;;;23.15;13.50;;;2.50;99.90;;;;;;5096997;28;20513;-62
2023/12/07 06:03:13;;;;;;;25.73;14.60;;;2.50;99.90;;;;;;5078769;28;20032;-62
2023/12/07 06:05:39;;;;;;;23.63;13.43;;;2.50;99.90;;;;;;5096905;28;20115;-62
2023/12/07 06:08:05;;;;;;;25.75;14.32;;;2.50;99.90;;;;;;5078723;28;20063;-62
2023/12/07 06:10:30;;;;;;;22.48;13.73;;;2.50;99.90;;;;;;5097128;28;20024;-63
2023/12/07 06:13:00;;;;;;;24.58;15.02;;;2.50;99.90;;;;;;5078694;28;20165;-62
2023/12/07 06:15:27;;;;;;;24.95;14.73;;;2.50;99.90;;;;;;5096724;28;20461;-62
2023/12/07 06:17:57;;;;;;;24.52;13.75;;;2.50;99.90;;;;;;5078170;28;20024;-63
2023/12/07 06:20:23;;;;;;;24.77;13.68;;;2.50;99.90;;;;;;5096737;28;20027;-62
2023/12/07 06:22:48;;;;;;;27.35;14.88;;;2.50;99.90;;;;;;5096843;28;20111;-66
2023/12/07 06:25:14;;;;;;;26.15;15.23;;;2.70;99.90;;;;;;5096926;28;20074;-66
2023/12/07 06:27:40;;;;;;;24.23;14.15;;;2.80;99.90;;;;;;5078498;28;20036;-66
2023/12/07 06:30:06;;;;;;;26.98;15.00;;;2.90;99.90;;;;;;5096936;28;20358;-66
2023/12/07 06:32:32;;;;;;;29.08;15.07;;;2.90;99.90;;;;;;5096795;28;20047;-66
2023/12/07 06:34:58;;;;;;;26.05;14.88;;;2.90;99.90;;;;;;5079179;28;20466;-66
2023/12/07 06:37:24;;;;;;;31.30;16.42;;;2.90;99.90;;;;;;5096312;28;20103;-67
2023/12/07 06:39:50;;;;;;;28.42;15.40;;;2.80;99.90;;;;;;5096400;28;20065;-67
2023/12/07 06:42:16;;;;;;;23.02;14.25;;;2.90;99.90;;;;;;5096529;28;20107;-66
2023/12/07 06:44:51;;;;;;;30.42;16.00;;;2.80;99.90;;;;;;5077785;28;20025;-68
2023/12/07 06:47:18;;;;;;;31.58;15.85;;;2.70;99.90;;;;;;5096407;28;20488;-66
2023/12/07 06:49:44;;;;;;;26.52;16.15;;;2.70;99.90;;;;;;5078222;28;20039;-66
2023/12/07 06:52:10;;;;;;;29.63;16.23;;;2.60;99.90;;;;;;5099194;28;20024;-67
2023/12/07 06:54:36;;;;;;;27.45;15.75;;;2.60;99.90;;;;;;5082465;28;20462;-68
2023/12/07 06:57:02;;;;;;;26.90;14.65;;;2.60;99.90;;;;;;5081978;28;20024;-68
2023/12/07 06:59:28;;;;;;;25.33;14.93;;;2.60;99.90;;;;;;5081548;28;20030;-67
2023/12/07 07:01:54;;;;;;;25.77;14.35;;;2.70;99.90;;;;;;5096394;28;20020;-67
2023/12/07 07:04:19;;;;;;;29.05;15.85;;;2.70;99.90;;;;;;5095537;28;20385;-67
2023/12/07 07:06:45;;;;;;;25.63;15.88;;;2.70;99.90;;;;;;5095793;28;20042;-66
2023/12/07 07:09:12;;;;;;;23.83;13.65;;;2.60;99.90;;;;;;5095463;28;20020;-62
2023/12/07 07:11:38;;;;;;;25.15;14.93;;;2.70;99.90;;;;;;5095436;28;20032;-62
2023/12/07 07:14:04;;;;;;;23.85;14.98;;;2.60;99.90;;;;;;5077505;28;20081;-62
2023/12/07 07:16:30;;;;;;;25.27;14.25;;;2.70;99.90;;;;;;5077629;28;20032;-62
2023/12/07 07:18:56;;;;;;;22.85;14.05;;;2.60;99.90;;;;;;5095870;28;20039;-62
2023/12/07 07:21:22;;;;;;;25.23;14.85;;;2.60;99.90;;;;;;5077492;28;20028;-62
2023/12/07 07:23:48;;;;;;;28.20;15.23;;;2.50;99.90;;;;;;5078011;28;20128;-62
2023/12/07 07:26:16;;;;;;;24.92;15.07;;;2.50;99.90;;;;;;5077562;28;20024;-62
2023/12/07 07:28:43;;;;;;;27.52;15.45;;;2.50;99.90;;;;;;5096202;28;20454;-63
2023/12/07 07:31:08;;;;;;;24.80;14.32;;;2.50;99.90;;;;;;5096682;28;20496;-66
2023/12/07 07:33:34;;;;;;;23.05;14.02;;;2.40;99.90;;;;;;5097731;28;20040;-63
2023/12/07 07:36:00;;;;;;;26.73;14.60;;;2.50;99.90;;;;;;5097690;28;20052;-63
2023/12/07 07:38:25;;;;;;;25.77;15.23;;;2.50;99.90;;;;;;5096896;28;20031;-62
2023/12/07 07:40:51;;;;;;;23.15;13.52;;;2.50;99.90;;;;;;5078417;28;20031;-65
2023/12/07 07:43:17;;;;;;;24.98;14.20;;;2.50;99.90;;;;;;5078439;28;20028;-62
2023/12/07 07:45:43;;;;;;;23.73;13.63;;;2.50;99.90;;;;;;5080173;28;20028;-63
2023/12/07 07:48:09;;;;;;;26.00;14.63;;;2.50;99.90;;;;;;5098013;28;20028;-64
2023/12/07 07:50:36;;;;;;;23.90;14.23;;;2.50;99.90;;;;;;5096001;28;20027;-62
2023/12/07 07:53:02;;;;;;;26.25;14.30;;;2.50;99.90;;;;;;5094957;28;20020;-62
2023/12/07 07:55:28;;;;;;;24.08;14.85;;;2.50;99.90;;;;;;5096047;28;20212;-66
2023/12/07 07:57:54;;;;;;;25.80;15.05;;;2.50;99.90;;;;;;5098198;28;20075;-66
2023/12/07 08:00:19;;;;;;;28.55;15.65;;;2.50;99.90;;;;;;5079499;28;20447;-62
2023/12/07 08:02:46;;;;;;;27.23;14.70;;;2.50;99.90;;;;;;5096238;28;20034;-62
2023/12/07 08:05:12;;;;;;;33.20;16.33;;;2.50;99.90;;;;;;5094595;28;20065;-62
2023/12/07 08:07:39;;;;;;;25.60;14.88;;;2.50;99.90;;;;;;5096756;28;20035;-65
2023/12/07 08:10:05;;;;;;;28.65;16.00;;;2.50;99.90;;;;;;5079246;28;20102;-63
2023/12/07 08:12:31;;;;;;;29.35;15.35;;;2.50;99.90;;;;;;5097584;28;20028;-63
2023/12/07 08:14:57;;;;;;;28.63;16.13;;;2.50;99.90;;;;;;5097244;28;20028;-65
2023/12/07 08:17:22;;;;;;;27.23;16.50;;;2.50;99.90;;;;;;5097506;28;20367;-63
2023/12/07 08:19:48;;;;;;;28.15;16.13;;;2.50;99.90;;;;;;5096951;28;20032;-63
2023/12/07 08:22:13;;;;;;;27.13;16.27;;;2.50;99.90;;;;;;5079433;28;20024;-63
2023/12/07 08:24:40;;;;;;;28.17;15.35;;;2.50;99.90;;;;;;5096528;28;20081;-62
2023/12/07 08:27:05;;;;;;;33.83;16.55;;;2.50;99.90;;;;;;5096600;28;20117;-63
2023/12/07 08:29:31;;;;;;;36.08;18.25;;;2.50;99.90;;;;;;5096166;28;20023;-63
2023/12/07 08:31:57;;;;;;;33.10;17.58;;;2.50;99.90;;;;;;5096998;28;20044;-63
2023/12/07 08:34:24;;;;;;;34.17;17.63;;;2.60;99.90;;;;;;5097119;28;20034;-63
2023/12/07 08:36:51;;;;;;;30.83;16.75;;;2.60;99.90;;;;;;5097610;28;20130;-68
2023/12/07 08:39:16;;;;;;;38.33;17.88;;;2.60;99.90;;;;;;5096868;28;20464;-67
2023/12/07 08:41:42;;;;;;;28.98;16.38;;;2.60;99.90;;;;;;5096568;28;20024;-67
2023/12/07 08:44:08;;;;;;;28.50;15.75;;;2.60;99.90;;;;;;5096597;28;20036;-63
2023/12/07 08:46:34;;;;;;;30.63;16.85;;;2.60;99.90;;;;;;5096421;28;20047;-63
2023/12/07 08:48:59;;;;;;;30.73;15.43;;;2.60;99.90;;;;;;5094614;28;20032;-63
2023/12/07 08:51:25;;;;;;;27.38;15.80;;;2.60;99.90;;;;;;5094645;28;20107;-62
2023/12/07 08:53:51;;;;;;;30.25;15.98;;;2.60;99.90;;;;;;5094104;28;20031;-62
2023/12/07 08:56:18;;;;;;;28.45;16.58;;;2.70;99.90;;;;;;5093632;28;20032;-62
2023/12/07 08:58:44;;;;;;;24.92;14.95;;;2.70;99.90;;;;;;5075810;28;20030;-62
2023/12/07 09:01:11;;;;;;;29.20;17.35;;;2.70;99.90;;;;;;5094453;28;20056;-63
2023/12/07 09:03:37;;;;;;;24.30;14.50;;;2.70;99.90;;;;;;5095591;28;20093;-63
2023/12/07 09:06:03;;;;;;;27.92;15.18;;;2.80;99.90;;;;;;5095658;28;20449;-63
2023/12/07 09:08:29;;;;;;;24.98;15.15;;;2.80;99.90;;;;;;5097357;28;20028;-68
2023/12/07 09:10:54;;;;;;;27.48;15.85;;;2.70;99.90;;;;;;5099530;28;20445;-63
2023/12/07 09:13:20;;;;;;;27.17;14.50;;;2.80;99.90;;;;;;5081691;28;20073;-63
2023/12/07 09:15:46;;;;;;;26.08;15.18;;;2.80;99.90;;;;;;5081900;28;20031;-63
2023/12/07 09:18:11;;;;;;;26.40;14.35;;;2.90;99.90;;;;;;5082024;28;20427;-62
2023/12/07 09:20:45;;;;;;;25.42;14.32;;;2.90;99.90;;;;;;5099313;28;20024;-62
2023/12/07 09:23:16;;;;;;;25.90;14.57;;;2.90;99.90;;;;;;5081590;28;20028;-62
2023/12/07 09:25:43;;;;;;;25.80;15.02;;;2.90;99.90;;;;;;5099680;28;20036;-63
2023/12/07 09:28:08;;;;;;;24.92;13.95;;;2.80;99.90;;;;;;5099931;28;20031;-63
2023/12/07 09:30:35;;;;;;;26.13;14.20;;;2.90;99.90;;;;;;5080969;28;20032;-63
2023/12/07 09:33:04;;;;;;;25.75;14.57;;;2.90;99.90;;;;;;5099303;28;20157;-63
2023/12/07 09:35:29;;;;;;;;;;;2.90;99.90;;;;;;5099275;28;20116;-63
2023/12/07 09:37:55;;;;;;;24.55;14.27;;;3.00;99.90;;;;;;5080754;28;19939;-62
2023/12/07 09:40:22;;;;;;;27.52;14.85;;;3.10;99.90;;;;;;5098460;28;20020;-62
2023/12/07 09:42:49;;;;;;;24.42;13.95;;;3.10;99.90;;;;;;5099100;28;20136;-63
2023/12/07 09:45:19;;;;;;;26.65;13.57;;;3.20;99.90;;;;;;5099773;28;20043;-63
2023/12/07 09:47:48;;;;;;;22.88;13.90;;;3.30;99.90;;;;;;5099126;28;20027;-66
2023/12/07 09:50:17;;;;;;;22.67;13.57;;;3.30;99.90;;;;;;5098790;28;20020;-62
2023/12/07 09:52:43;;;;;;;;;;;3.40;99.90;;;;;;5099167;28;20024;-63
2023/12/07 09:55:09;;;;;;;23.90;13.75;;;3.40;99.90;;;;;;5080781;28;19904;-62
2023/12/07 09:57:37;;;;;;;20.95;13.38;;;3.50;99.90;;;;;;5098238;28;20134;-63
2023/12/07 10:00:04;;;;;;;23.48;14.32;;;3.50;99.90;;;;;;5097860;28;20035;-62
2023/12/07 10:02:30;;;;;;;21.00;13.48;;;3.50;99.90;;;;;;5079137;28;20052;-62
2023/12/07 10:05:06;;;;;;;20.30;12.68;;;3.50;99.90;;;;;;5097053;28;20064;-62
2023/12/07 10:07:35;;;;;;;26.42;13.70;;;3.50;99.90;;;;;;5097013;28;20038;-62
2023/12/07 10:10:01;;;;;;;23.52;14.70;;;3.50;99.90;;;;;;5096700;28;20036;-62
2023/12/07 10:12:26;;;;;;;23.90;14.52;;;3.50;99.90;;;;;;5078477;28;20473;-62
2023/12/07 10:14:52;;;;;;;26.88;14.73;;;3.50;99.90;;;;;;5096380;28;20063;-62
2023/12/07 10:17:18;;;;;;;23.35;14.15;;;3.50;99.90;;;;;;5096187;28;20484;-62
2023/12/07 10:19:43;;;;;;;21.98;13.32;;;3.50;99.90;;;;;;5095411;28;20032;-62
2023/12/07 10:22:15;;;;;;;22.52;14.48;;;3.50;99.90;;;;;;5095835;28;20381;-62
2023/12/07 10:24:42;;;;;;;24.60;14.13;;;3.40;99.90;;;;;;5078278;28;20028;-62
2023/12/07 10:27:08;;;;;;;25.38;15.68;;;3.40;99.90;;;;;;5096363;28;20024;-62
2023/12/07 10:29:38;;;;;;;24.92;14.60;;;3.40;99.90;;;;;;5096556;28;20036;-62
2023/12/07 10:32:04;;;;;;;24.90;14.60;;;3.50;99.90;;;;;;5077872;28;20127;-62
2023/12/07 10:34:33;;;;;;;26.20;15.45;;;3.60;99.90;;;;;;5096406;28;20059;-62
2023/12/07 10:36:58;;;;;;;21.30;12.93;;;4.20;99.90;;;;;;5077670;28;20034;-62
2023/12/07 10:39:26;;;;;;;24.17;13.63;;;4.40;99.90;;;;;;5077956;28;20036;-62
2023/12/07 10:42:01;;;;;;;23.35;13.40;;;4.50;99.90;;;;;;5096369;28;20157;-62
2023/12/07 10:44:28;;;;;;;23.77;13.95;;;4.60;99.90;;;;;;5097249;28;20024;-63
2023/12/07 10:46:55;;;;;;;20.85;14.02;;;4.60;99.90;;;;;;5097770;28;20016;-63
2023/12/07 10:49:26;;;;;;;22.80;13.52;;;4.50;99.90;;;;;;5097314;28;20028;-65
2023/12/07 10:52:00;;;;;;;21.58;12.90;;;4.40;99.90;;;;;;5079432;28;20526;-66
2023/12/07 10:54:39;;;;;;;24.40;13.93;;;4.30;99.90;;;;;;5096909;28;20389;-65
2023/12/07 10:57:06;;;;;;;21.00;13.35;;;4.20;99.90;;;;;;5078906;28;20028;-63
2023/12/07 10:59:34;;;;;;;25.65;12.73;;;4.30;99.90;;;;;;5098131;28;20411;-63
2023/12/07 11:02:01;;;;;;;28.60;13.68;;;4.30;99.90;;;;;;5097703;28;20073;-63
2023/12/07 11:04:27;;;;;;;23.23;14.93;;;4.40;99.90;;;;;;5097939;28;20449;-63
2023/12/07 11:06:57;;;;;;;20.85;13.77;;;4.40;99.90;;;;;;5078916;28;20031;-62
2023/12/07 11:09:28;;;;;;;24.00;14.13;;;4.50;99.90;;;;;;5077470;28;20074;-62
2023/12/07 11:12:10;;;;;;;22.63;14.02;;;4.40;99.90;;;;;;5095882;28;20111;-62
2023/12/07 11:14:39;;;;;;;23.13;13.38;;;4.30;99.90;;;;;;5077623;28;20032;-62
2023/12/07 11:17:04;;;;;;;23.38;14.15;;;4.40;99.90;;;;;;5077386;28;20080;-62
2023/12/07 11:19:33;;;;;;;24.20;13.75;;;4.40;99.90;;;;;;5077197;28;20032;-62
2023/12/07 11:22:03;;;;;;;25.42;14.85;;;4.40;99.90;;;;;;5095410;28;20043;-62
2023/12/07 11:24:30;;;;;;;23.58;14.93;;;4.50;99.90;;;;;;5077082;28;20032;-62
2023/12/07 11:26:56;;;;;;;24.15;14.05;;;4.70;99.90;;;;;;5095202;28;20017;-62
2023/12/07 11:29:24;;;;;;;22.33;14.02;;;4.70;99.90;;;;;;5076943;28;20028;-62
2023/12/07 11:31:51;;;;;;;24.38;15.05;;;4.50;99.90;;;;;;5094745;28;20125;-62
2023/12/07 11:34:36;;;;;;;20.80;13.23;;;4.80;99.90;;;;;;5095423;28;20166;-62
2023/12/07 11:37:02;;;;;;;23.63;14.10;;;5.40;99.90;;;;;;5077449;28;20051;-62
2023/12/07 11:39:29;;;;;;;24.48;14.10;;;5.70;99.90;;;;;;5095042;28;20031;-62
2023/12/07 11:41:58;;;;;;;20.02;12.95;;;6.00;99.90;;;;;;5094967;28;20028;-62
2023/12/07 11:44:40;;;;;;;21.42;13.77;;;5.70;99.90;;;;;;5094924;28;20039;-62
2023/12/07 11:47:07;;;;;;;21.52;14.18;;;5.00;99.90;;;;;;5096112;28;20039;-63
2023/12/07 11:49:33;;;;;;;23.33;13.93;;;4.70;99.90;;;;;;5096759;28;20488;-62
2023/12/07 11:51:59;;;;;;;25.17;15.60;;;4.50;99.90;;;;;;5077163;28;20032;-62
2023/12/07 11:54:28;;;;;;;28.23;14.27;;;4.30;99.90;;;;;;5094700;28;20417;-62
2023/12/07 11:56:55;;;;;;;23.73;13.57;;;4.30;99.90;;;;;;5094412;28;20475;-62
2023/12/07 11:59:22;;;;;;;22.63;13.95;;;4.30;99.90;;;;;;5094373;28;20473;-62
2023/12/07 12:01:48;;;;;;;22.70;14.30;;;4.30;99.90;;;;;;5094685;28;20024;-62
2023/12/07 12:04:15;;;;;;;26.52;14.77;;;4.30;99.90;;;;;;5094481;28;20036;-62
2023/12/07 12:06:43;;;;;;;25.83;13.77;;;4.30;99.90;;;;;;5076121;28;20020;-62
2023/12/07 12:09:10;;;;;;;23.83;14.57;;;4.30;99.90;;;;;;5076887;28;20059;-62
2023/12/07 12:11:36;;;;;;;23.92;14.07;;;4.20;99.90;;;;;;5095351;28;20089;-63
2023/12/07 12:14:02;;;;;;;23.52;14.05;;;4.20;99.90;;;;;;5095788;28;20036;-62
2023/12/07 12:16:28;;;;;;;21.98;14.13;;;4.20;99.90;;;;;;5095858;28;20032;-63
2023/12/07 12:18:53;;;;;;;27.20;14.73;;;4.20;99.90;;;;;;5096497;28;20020;-62
2023/12/07 12:21:20;;;;;;;24.33;15.13;;;4.10;99.90;;;;;;5078496;28;20583;-63
2023/12/07 12:23:48;;;;;;;24.85;14.50;;;4.00;99.90;;;;;;5097234;28;20047;-65
2023/12/07 12:26:14;;;;;;;25.73;14.80;;;4.00;99.90;;;;;;5095611;28;20024;-62
2023/12/07 12:28:42;;;;;;;26.50;15.02;;;3.90;99.90;;;;;;5095725;28;20024;-63
2023/12/07 12:31:11;;;;;;;27.92;15.45;;;3.80;99.90;;;;;;5095993;28;20055;-63
2023/12/07 12:33:37;;;;;;;30.52;16.20;;;3.80;99.90;;;;;;5095855;28;20040;-63
2023/12/07 12:36:06;;;;;;;31.15;15.75;;;3.80;99.90;;;;;;5095846;28;20373;-63